Ried, Austria
Current Conditions -  °F | °C
As of 12:50 AM on Thursday 27 Nov 2014 (Local Time) from LOWL Reporting Station
Scattered Clouds Scattered Clouds  
Wind Chill: 29°   Ceiling: Unl
Heat Index: 34°   Visibility: 6mi
Dew Point: 30°   Wind: 6mph
Humidity: 87%   Direction: 100°E
Pressure: 30"   Gusts: NA
Location:  48.21°N, 13.48°E
Report Text: LOWL 262250Z AUTO 10005KT 9999 SCT036 SCT170 01/M01 Q1016
Loading
Personal Weather Stations






























Interactive Weather Map New forecast layout! Learn more

10-Day Weather Forecast

Advertisements
Track Severe Weather on mobile